Garvagh, United Kingdom
Current Conditions -  °F | °C
As of 5:50 PM on Tuesday 21 Oct 2014 (Local Time) from EGAE Reporting Station
Rain Showers Rain Showers  
Wind Chill: 42°   Ceiling: Unl
Heat Index: 48°   Visibility: 6mi
Dew Point: 36°   Wind: 17mph
Humidity: 62%   Direction: 290°WNW
Pressure: 30"   Gusts: NA
Location:  54.98°N, 6.68°W
Report Text: EGAE 211650Z 29015KT 9999 VCSH SCT028 09/02 Q1016
Loading
Personal Weather Stations






























Interactive Weather Map
Tropical Storm Tracking
New forecast layout! Learn more

10-Day Weather Forecast

Advertisements
Track Severe Weather on mobile